Time;durP1;ratioP1;P1;durP2;ratioP2;P2;SDS_P1;SDS_P2;PMS_P1;PMS_P2;Temp;Humidity;BMP_temperature;BMP_pressure;BME280_temperature;BME280_humidity;BME280_pressure;Samples;Min_cycle;Max_cycle;Signal;HPM_P1;HPM_P2
2023/12/21 05:05:55;;;;;;;0.30;0.30;;;7.60;99.90;;;;;;5629089;23;20227;-67
2023/12/21 05:08:21;;;;;;;0.30;0.30;;;7.50;99.90;;;;;;4938641;28;20559;-67
2023/12/21 05:10:46;;;;;;;0.20;0.20;;;7.50;99.90;;;;;;4938406;29;20182;-67
2023/12/21 05:13:12;;;;;;;0.30;0.30;;;7.60;99.90;;;;;;4938437;29;20181;-67
2023/12/21 05:15:37;;;;;;;0.30;0.30;;;7.50;99.90;;;;;;4937896;29;20291;-68
2023/12/21 05:18:03;;;;;;;0.20;0.20;;;7.50;99.90;;;;;;4938246;29;20178;-68
2023/12/21 05:20:29;;;;;;;0.30;0.30;;;7.60;99.90;;;;;;4937855;29;20341;-68
2023/12/21 05:22:54;;;;;;;0.30;0.30;;;7.60;99.90;;;;;;4938066;29;20223;-68
2023/12/21 05:25:20;;;;;;;0.30;0.30;;;7.60;99.90;;;;;;4937611;29;20241;-68
2023/12/21 05:27:45;;;;;;;0.30;0.20;;;7.60;99.90;;;;;;4938249;29;20245;-67
2023/12/21 05:30:11;;;;;;;0.30;0.30;;;7.70;99.90;;;;;;4937917;29;20251;-67
2023/12/21 05:32:37;;;;;;;0.30;0.30;;;7.70;99.90;;;;;;4937901;29;20665;-68
2023/12/21 05:35:04;;;;;;;0.30;0.30;;;7.70;99.90;;;;;;4936513;29;20256;-69
2023/12/21 05:37:29;;;;;;;0.30;0.30;;;7.70;99.90;;;;;;4937280;29;20177;-68
2023/12/21 05:39:55;;;;;;;0.30;0.30;;;7.70;99.90;;;;;;4937641;29;20278;-69
2023/12/21 05:42:21;;;;;;;0.30;0.30;;;7.70;99.90;;;;;;4937777;29;20169;-66
2023/12/21 05:44:46;;;;;;;0.30;0.30;;;7.70;99.90;;;;;;4937247;29;20638;-68
2023/12/21 05:47:12;;;;;;;0.30;0.30;;;7.70;99.90;;;;;;4937283;29;20168;-67
2023/12/21 05:49:37;;;;;;;0.30;0.30;;;7.70;99.90;;;;;;4937518;29;20177;-67
2023/12/21 05:52:03;;;;;;;0.30;0.30;;;7.70;99.90;;;;;;4937461;29;20195;-68
2023/12/21 05:54:30;;;;;;;0.37;0.37;;;7.70;99.90;;;;;;4936708;29;20186;-66
2023/12/21 05:56:56;;;;;;;0.30;0.30;;;7.80;99.90;;;;;;4935993;29;20451;-67
2023/12/21 05:59:21;;;;;;;0.30;0.30;;;7.80;99.90;;;;;;4937026;29;20184;-68
2023/12/21 06:01:47;;;;;;;0.30;0.30;;;7.80;99.90;;;;;;4937533;29;20177;-67
2023/12/21 06:04:13;;;;;;;0.30;0.30;;;7.80;99.90;;;;;;4937209;29;20653;-68
2023/12/21 06:06:38;;;;;;;0.30;0.30;;;7.80;99.90;;;;;;4937077;29;20445;-68
2023/12/21 06:09:07;;;;;;;0.30;0.30;;;7.80;99.90;;;;;;4937128;29;20165;-68
2023/12/21 06:11:33;;;;;;;0.30;0.30;;;7.80;99.90;;;;;;4937187;29;20230;-69
2023/12/21 06:14:00;;;;;;;0.30;0.30;;;7.80;99.90;;;;;;4936914;29;20205;-69
2023/12/21 06:16:25;;;;;;;0.30;0.30;;;7.80;99.90;;;;;;4936889;29;20433;-68
2023/12/21 06:18:51;;;;;;;0.30;0.20;;;7.80;99.90;;;;;;4937004;29;20183;-68
2023/12/21 06:21:17;;;;;;;0.20;0.20;;;7.80;99.90;;;;;;4937008;29;20201;-67
2023/12/21 06:23:42;;;;;;;0.37;0.37;;;7.80;99.90;;;;;;4935065;29;20169;-68
2023/12/21 06:26:08;;;;;;;0.30;0.30;;;7.80;99.90;;;;;;4925060;29;20194;-68
2023/12/21 06:28:34;;;;;;;0.30;0.30;;;7.80;99.90;;;;;;4917830;29;20170;-69
2023/12/21 06:31:00;;;;;;;0.30;0.20;;;7.80;99.90;;;;;;4935348;29;20184;-68
2023/12/21 06:33:26;;;;;;;0.30;0.30;;;7.80;99.90;;;;;;4929374;29;20521;-67
2023/12/21 06:35:52;;;;;;;0.40;0.40;;;7.80;99.90;;;;;;4919360;29;20202;-69
2023/12/21 06:38:18;;;;;;;0.30;0.30;;;7.80;99.90;;;;;;4919385;29;20181;-69
2023/12/21 06:40:43;;;;;;;0.30;0.30;;;7.80;99.90;;;;;;4933587;29;20204;-68
2023/12/21 06:43:09;;;;;;;0.33;0.33;;;7.80;99.90;;;;;;4936468;29;20408;-68
2023/12/21 06:45:36;;;;;;;0.30;0.30;;;7.80;99.90;;;;;;4925457;29;20582;-69
2023/12/21 06:48:02;;;;;;;0.30;0.20;;;7.80;99.90;;;;;;4917386;29;20178;-68
2023/12/21 06:50:28;;;;;;;0.30;0.30;;;7.80;99.90;;;;;;4917397;29;20167;-67
2023/12/21 06:52:53;;;;;;;0.30;0.30;;;7.90;99.90;;;;;;4917339;29;20426;-68
2023/12/21 06:55:19;;;;;;;0.30;0.30;;;7.80;99.90;;;;;;4920644;29;20480;-68
2023/12/21 06:57:44;;;;;;;0.30;0.30;;;7.90;99.90;;;;;;4925828;29;20170;-68
2023/12/21 07:00:11;;;;;;;0.40;0.40;;;7.90;99.90;;;;;;4917447;29;20203;-69
2023/12/21 07:02:36;;;;;;;0.30;0.30;;;7.90;99.90;;;;;;4917374;29;20173;-68
2023/12/21 07:05:02;;;;;;;0.30;0.30;;;7.90;99.90;;;;;;4917174;29;20195;-68
2023/12/21 07:07:27;;;;;;;0.33;0.33;;;7.90;99.90;;;;;;4917519;29;20193;-69
2023/12/21 07:09:53;;;;;;;0.30;0.30;;;7.90;99.90;;;;;;4928248;29;20182;-68
2023/12/21 07:12:20;;;;;;;0.30;0.30;;;7.90;99.90;;;;;;4936388;29;20248;-68
2023/12/21 07:14:46;;;;;;;0.30;0.30;;;7.90;99.90;;;;;;4926506;29;20181;-68
2023/12/21 07:17:12;;;;;;;0.30;0.30;;;7.90;99.90;;;;;;4917423;29;20177;-68
2023/12/21 07:19:38;;;;;;;0.30;0.30;;;8.00;99.90;;;;;;4918526;29;20181;-68
2023/12/21 07:22:06;;;;;;;0.40;0.40;;;8.00;99.90;;;;;;4921101;29;20190;-68
2023/12/21 07:24:32;;;;;;;0.30;0.30;;;8.00;99.90;;;;;;4933834;29;20414;-70
2023/12/21 07:26:58;;;;;;;0.30;0.30;;;8.00;99.90;;;;;;4923253;29;20210;-69
2023/12/21 07:29:23;;;;;;;0.30;0.20;;;8.10;99.90;;;;;;4903701;29;20181;-68
2023/12/21 07:31:49;;;;;;;0.30;0.30;;;8.10;99.90;;;;;;4904107;29;20208;-68
2023/12/21 07:34:14;;;;;;;0.30;0.20;;;8.10;99.90;;;;;;4918795;29;21453;-68
2023/12/21 07:36:40;;;;;;;0.30;0.30;;;8.10;99.90;;;;;;4933276;29;20216;-67
2023/12/21 07:39:06;;;;;;;0.40;0.40;;;8.20;99.90;;;;;;4933664;29;20546;-68
2023/12/21 07:41:31;;;;;;;0.30;0.30;;;8.20;99.90;;;;;;4933551;29;20221;-68
2023/12/21 07:43:57;;;;;;;0.30;0.30;;;8.20;99.90;;;;;;4926889;29;20177;-70
2023/12/21 07:46:24;;;;;;;0.33;0.33;;;8.20;99.90;;;;;;4906862;29;20459;-69
2023/12/21 07:48:50;;;;;;;0.30;0.30;;;8.20;99.90;;;;;;4923336;29;20197;-69
2023/12/21 07:51:15;;;;;;;0.30;0.30;;;8.20;99.90;;;;;;4928976;29;20189;-68
2023/12/21 07:53:41;;;;;;;0.33;0.33;;;8.20;99.90;;;;;;4932504;29;20205;-67
2023/12/21 07:56:07;;;;;;;0.40;0.40;;;8.30;99.90;;;;;;4924903;29;20205;-69
2023/12/21 07:58:33;;;;;;;0.30;0.30;;;8.30;99.90;;;;;;4926642;29;20234;-69
2023/12/21 08:00:59;;;;;;;0.30;0.20;;;8.30;99.90;;;;;;4924385;29;20221;-69
2023/12/21 08:03:25;;;;;;;0.30;0.28;;;8.40;99.90;;;;;;4924473;29;20584;-68
2023/12/21 08:05:51;;;;;;;0.33;0.33;;;8.40;99.90;;;;;;4931425;29;20228;-68
2023/12/21 08:08:16;;;;;;;0.40;0.40;;;8.40;99.90;;;;;;4927471;29;20238;-70
2023/12/21 08:10:42;;;;;;;0.30;0.30;;;8.40;99.90;;;;;;4921742;29;21590;-71
2023/12/21 08:13:13;;;;;;;0.30;0.30;;;8.40;99.90;;;;;;4921947;29;20597;-69
2023/12/21 08:15:39;;;;;;;0.30;0.30;;;8.40;99.90;;;;;;4925540;29;20197;-70
2023/12/21 08:18:05;;;;;;;0.30;0.27;;;8.40;99.90;;;;;;4925179;29;20185;-69
2023/12/21 08:20:30;;;;;;;0.30;0.30;;;8.40;99.90;;;;;;4929582;29;20464;-71
2023/12/21 08:22:58;;;;;;;0.30;0.30;;;8.50;99.90;;;;;;4926423;29;20434;-70
2023/12/21 08:25:24;;;;;;;0.30;0.30;;;8.50;99.90;;;;;;4926933;29;20523;-70
2023/12/21 08:27:49;;;;;;;0.30;0.30;;;8.50;99.90;;;;;;4926562;29;20265;-69
2023/12/21 08:30:15;;;;;;;0.30;0.30;;;8.50;99.90;;;;;;4925767;29;20693;-69
2023/12/21 08:32:41;;;;;;;0.30;0.30;;;8.50;99.90;;;;;;4928699;29;20265;-69
2023/12/21 08:35:07;;;;;;;0.30;0.30;;;8.50;99.90;;;;;;4919119;29;20201;-71
2023/12/21 08:37:33;;;;;;;0.30;0.30;;;8.50;99.90;;;;;;4931072;29;20421;-69
2023/12/21 08:39:58;;;;;;;0.30;0.30;;;8.50;99.90;;;;;;4932551;29;20236;-68
2023/12/21 08:42:26;;;;;;;0.30;0.30;;;8.60;99.90;;;;;;4936849;29;20215;-67
2023/12/21 08:44:52;;;;;;;0.30;0.30;;;8.50;99.90;;;;;;4926733;29;20174;-68
2023/12/21 08:47:18;;;;;;;0.30;0.30;;;8.60;99.90;;;;;;4934821;29;20653;-68
2023/12/21 08:49:44;;;;;;;0.33;0.33;;;8.60;99.90;;;;;;4918269;29;20269;-68
2023/12/21 08:52:09;;;;;;;0.30;0.30;;;8.60;99.90;;;;;;4919488;29;20421;-69
2023/12/21 08:54:35;;;;;;;0.30;0.30;;;8.60;99.90;;;;;;4922802;29;20181;-68
2023/12/21 08:57:01;;;;;;;0.37;0.37;;;8.60;99.90;;;;;;4938517;29;20460;-69
2023/12/21 08:59:27;;;;;;;0.30;0.30;;;8.70;99.90;;;;;;4923389;29;20482;-68
2023/12/21 09:01:55;;;;;;;0.30;0.20;;;8.70;99.90;;;;;;4931461;29;20688;-71
2023/12/21 09:04:21;;;;;;;0.30;0.30;;;8.70;99.90;;;;;;4937051;29;20181;-69
2023/12/21 09:06:47;;;;;;;0.30;0.30;;;8.70;99.90;;;;;;4936341;29;20213;-68
2023/12/21 09:09:13;;;;;;;0.30;0.30;;;8.80;99.90;;;;;;4937257;29;20180;-67
2023/12/21 09:11:39;;;;;;;0.30;0.30;;;8.80;99.90;;;;;;4927034;29;20210;-68
2023/12/21 09:14:07;;;;;;;0.30;0.28;;;8.70;99.90;;;;;;4923384;29;20421;-72
2023/12/21 09:16:32;;;;;;;0.30;0.30;;;8.80;99.90;;;;;;4933158;29;20193;-64
2023/12/21 09:18:58;;;;;;;0.40;0.40;;;8.70;99.90;;;;;;4929704;29;20685;-68
2023/12/21 09:21:24;;;;;;;0.30;0.30;;;8.70;99.90;;;;;;4932733;29;20964;-67
2023/12/21 09:23:50;;;;;;;0.30;0.20;;;8.70;99.90;;;;;;4937948;29;20166;-68
2023/12/21 09:26:16;;;;;;;0.30;0.30;;;8.80;99.90;;;;;;4937609;29;20433;-64
2023/12/21 09:28:43;;;;;;;0.30;0.30;;;8.80;99.90;;;;;;4938061;29;20522;-68
2023/12/21 09:31:09;;;;;;;0.30;0.30;;;8.70;99.90;;;;;;4930132;29;20261;-69
2023/12/21 09:33:36;;;;;;;0.30;0.20;;;8.80;99.90;;;;;;4933069;29;20260;-69
2023/12/21 09:36:03;;;;;;;0.30;0.30;;;8.80;99.90;;;;;;4937311;29;20727;-68
2023/12/21 09:38:28;;;;;;;0.30;0.20;;;8.80;99.90;;;;;;4937717;29;20507;-69
2023/12/21 09:40:56;;;;;;;0.30;0.30;;;8.90;99.90;;;;;;4928845;29;20202;-68
2023/12/21 09:43:22;;;;;;;0.30;0.20;;;8.90;99.90;;;;;;4918703;29;20635;-70
2023/12/21 09:45:51;;;;;;;0.30;0.30;;;8.90;99.90;;;;;;4924657;29;20276;-69
2023/12/21 09:48:18;;;;;;;0.30;0.30;;;8.90;99.90;;;;;;4935667;29;21645;-71
2023/12/21 09:50:48;;;;;;;0.30;0.30;;;9.00;99.90;;;;;;4922421;29;20673;-69
2023/12/21 09:53:16;;;;;;;0.30;0.30;;;9.00;99.90;;;;;;4918614;29;20198;-69
2023/12/21 09:55:43;;;;;;;0.30;0.30;;;9.00;99.90;;;;;;4918185;29;20194;-69
2023/12/21 09:58:11;;;;;;;0.30;0.30;;;9.00;99.90;;;;;;4918382;29;20166;-70
2023/12/21 10:00:37;;;;;;;0.32;0.32;;;9.00;99.90;;;;;;4918934;29;20194;-70
2023/12/21 10:03:04;;;;;;;0.30;0.30;;;9.10;99.90;;;;;;4918246;29;20170;-70
2023/12/21 10:05:30;;;;;;;0.30;0.30;;;9.10;99.90;;;;;;4917881;29;20429;-70
2023/12/21 10:07:57;;;;;;;0.30;0.30;;;9.10;99.90;;;;;;4918149;29;20237;-70
2023/12/21 10:10:23;;;;;;;0.30;0.30;;;9.20;99.90;;;;;;4934819;29;20495;-69
2023/12/21 10:12:49;;;;;;;0.33;0.33;;;9.20;99.90;;;;;;4936970;29;20265;-68
2023/12/21 10:15:16;;;;;;;0.30;0.27;;;9.20;99.90;;;;;;4923312;29;20244;-69
2023/12/21 10:17:42;;;;;;;0.30;0.30;;;9.20;99.90;;;;;;4936882;29;20181;-67
2023/12/21 10:20:11;;;;;;;0.30;0.30;;;9.20;99.90;;;;;;4936712;29;20235;-68
2023/12/21 10:22:39;;;;;;;0.30;0.30;;;9.30;99.90;;;;;;4934465;29;20218;-68
2023/12/21 10:25:07;;;;;;;0.40;0.40;;;9.30;99.90;;;;;;4917575;29;20555;-70
2023/12/21 10:27:34;;;;;;;0.30;0.30;;;9.30;99.90;;;;;;4917908;29;20578;-67
2023/12/21 10:29:59;;;;;;;0.30;0.20;;;9.40;99.90;;;;;;4918331;29;20671;-69
2023/12/21 10:32:25;;;;;;;0.30;0.30;;;9.40;99.90;;;;;;4922122;29;20190;-68
2023/12/21 10:34:54;;;;;;;0.30;0.30;;;9.40;99.90;;;;;;4934671;29;20179;-70
2023/12/21 10:37:20;;;;;;;0.30;0.30;;;9.40;99.90;;;;;;4935590;29;20201;-69
2023/12/21 10:39:46;;;;;;;0.30;0.30;;;9.40;99.90;;;;;;4936378;29;20191;-70
2023/12/21 10:42:15;;;;;;;0.32;0.32;;;9.50;99.90;;;;;;4936511;29;20172;-69
2023/12/21 10:44:44;;;;;;;0.30;0.30;;;9.50;99.90;;;;;;4935717;29;20185;-69
2023/12/21 10:47:11;;;;;;;0.30;0.30;;;9.50;99.90;;;;;;4918544;29;20269;-69
2023/12/21 10:49:40;;;;;;;0.30;0.30;;;9.50;99.90;;;;;;4917754;29;20174;-70
2023/12/21 10:52:06;;;;;;;0.30;0.30;;;9.50;99.90;;;;;;4917466;29;20170;-68
2023/12/21 10:54:33;;;;;;;0.30;0.20;;;9.60;99.90;;;;;;4917112;29;20639;-67
2023/12/21 10:56:59;;;;;;;0.30;0.20;;;9.60;99.90;;;;;;4931626;29;20197;-70
2023/12/21 10:59:26;;;;;;;0.30;0.30;;;9.50;99.90;;;;;;4935902;29;20173;-69
2023/12/21 11:01:53;;;;;;;0.30;0.20;;;9.60;99.90;;;;;;4926202;29;20753;-70
2023/12/21 11:04:22;;;;;;;0.30;0.30;;;9.60;99.90;;;;;;4916818;29;20209;-69
2023/12/21 11:06:49;;;;;;;0.30;0.30;;;9.70;99.90;;;;;;4916980;29;20206;-69
2023/12/21 11:09:19;;;;;;;0.30;0.30;;;9.60;99.90;;;;;;4924836;29;20683;-68
2023/12/21 11:11:45;;;;;;;0.30;0.30;;;9.60;99.90;;;;;;4934216;29;20645;-69
2023/12/21 11:14:11;;;;;;;0.30;0.30;;;9.60;99.90;;;;;;4935140;29;20226;-66
2023/12/21 11:16:50;;;;;;;0.30;0.30;;;9.60;99.90;;;;;;4935915;29;20249;-67
2023/12/21 11:19:32;;;;;;;0.30;0.30;;;9.60;99.90;;;;;;4936006;29;20178;-68
2023/12/21 11:21:58;;;;;;;0.30;0.30;;;9.60;99.90;;;;;;4934836;29;20639;-69
2023/12/21 11:24:24;;;;;;;0.30;0.30;;;9.60;99.90;;;;;;4935621;29;20177;-69
2023/12/21 11:26:50;;;;;;;0.30;0.30;;;9.70;99.90;;;;;;4935996;29;20193;-69
2023/12/21 11:29:27;;;;;;;0.30;0.20;;;9.70;99.90;;;;;;4936074;29;20696;-67
2023/12/21 11:31:53;;;;;;;0.30;0.30;;;9.70;99.90;;;;;;4936832;29;20176;-68
2023/12/21 11:34:21;;;;;;;0.30;0.30;;;9.70;99.90;;;;;;4940595;29;20177;-69
2023/12/21 11:36:57;;;;;;;0.30;0.30;;;9.70;99.90;;;;;;4942127;29;20280;-69
2023/12/21 11:39:24;;;;;;;0.30;0.30;;;9.80;99.90;;;;;;4941474;29;20176;-69
2023/12/21 11:41:50;;;;;;;0.30;0.30;;;9.80;99.90;;;;;;4942106;29;20597;-70
2023/12/21 11:44:17;;;;;;;0.30;0.30;;;9.80;99.90;;;;;;4941957;29;20213;-67
2023/12/21 11:46:42;;;;;;;0.30;0.30;;;9.80;99.90;;;;;;4942261;29;20243;-70
2023/12/21 11:49:23;;;;;;;0.30;0.30;;;9.90;99.90;;;;;;4942018;29;20698;-68
2023/12/21 11:51:50;;;;;;;0.30;0.30;;;9.90;99.90;;;;;;4942258;29;20197;-70
2023/12/21 11:54:23;;;;;;;0.40;0.40;;;9.90;99.90;;;;;;4941821;29;20194;-67
2023/12/21 11:56:54;;;;;;;0.30;0.30;;;9.90;99.90;;;;;;4940746;29;20205;-67
2023/12/21 11:59:26;;;;;;;0.30;0.30;;;9.90;99.90;;;;;;4941002;29;20189;-69
2023/12/21 12:01:52;;;;;;;0.30;0.30;;;10.00;99.90;;;;;;4941943;29;20302;-69
2023/12/21 12:04:18;;;;;;;0.30;0.30;;;10.00;99.90;;;;;;4940065;29;20312;-67
2023/12/21 12:06:46;;;;;;;0.30;0.30;;;10.00;99.90;;;;;;4929560;29;20545;-67
2023/12/21 12:09:12;;;;;;;0.30;0.30;;;10.00;99.90;;;;;;4930848;29;20167;-66
2023/12/21 12:11:41;;;;;;;0.40;0.40;;;10.00;99.90;;;;;;4942388;29;20660;-66
2023/12/21 12:14:09;;;;;;;0.30;0.30;;;10.00;99.90;;;;;;4941583;29;20410;-71
2023/12/21 12:16:37;;;;;;;0.30;0.30;;;10.00;99.90;;;;;;4941923;29;20208;-67
2023/12/21 12:19:03;;;;;;;0.30;0.30;;;9.90;99.90;;;;;;4941857;29;20177;-69
2023/12/21 12:21:30;;;;;;;0.30;0.30;;;9.90;99.90;;;;;;4942099;29;20198;-67
2023/12/21 12:24:01;;;;;;;0.30;0.28;;;9.90;99.90;;;;;;4940796;29;20428;-73
2023/12/21 12:26:27;;;;;;;0.30;0.30;;;9.90;99.90;;;;;;4941735;29;20193;-67
2023/12/21 12:28:53;;;;;;;0.30;0.30;;;9.90;99.90;;;;;;4940593;29;20179;-68
2023/12/21 12:31:19;;;;;;;0.30;0.30;;;10.00;99.90;;;;;;4941897;29;20179;-70
2023/12/21 12:33:47;;;;;;;0.70;0.70;;;10.00;99.90;;;;;;4941941;29;20895;-69
2023/12/21 12:36:16;;;;;;;0.30;0.30;;;9.90;99.90;;;;;;4941628;29;20209;-70
2023/12/21 12:38:45;;;;;;;0.30;0.30;;;10.00;99.90;;;;;;4940616;29;20634;-71
2023/12/21 12:41:22;;;;;;;0.30;0.30;;;10.00;99.90;;;;;;4941714;29;20814;-69
2023/12/21 12:43:49;;;;;;;0.30;0.20;;;10.00;99.90;;;;;;4940327;29;20188;-68
2023/12/21 12:46:15;;;;;;;1.35;0.55;;;10.00;99.90;;;;;;4938334;29;20193;-68
2023/12/21 12:48:41;;;;;;;0.30;0.30;;;10.00;99.90;;;;;;4937881;29;20188;-69
2023/12/21 12:51:11;;;;;;;0.30;0.30;;;10.00;99.90;;;;;;4938724;29;20190;-69
2023/12/21 12:53:38;;;;;;;0.30;0.30;;;9.90;99.90;;;;;;4938666;29;20171;-69
2023/12/21 12:56:04;;;;;;;0.30;0.30;;;10.00;99.90;;;;;;4936876;29;20221;-67
2023/12/21 12:58:35;;;;;;;0.30;0.28;;;10.00;99.90;;;;;;4933458;29;20671;-69
2023/12/21 13:01:02;;;;;;;0.30;0.30;;;10.00;99.90;;;;;;4919432;29;20301;-68
2023/12/21 13:03:28;;;;;;;0.30;0.30;;;10.10;99.90;;;;;;4919470;29;20178;-69
2023/12/21 13:05:53;;;;;;;0.40;0.40;;;10.10;99.90;;;;;;4918991;29;20190;-70
2023/12/21 13:08:19;;;;;;;0.30;0.30;;;10.10;99.90;;;;;;4926555;29;20438;-72
2023/12/21 13:10:45;;;;;;;0.30;0.30;;;10.20;99.90;;;;;;4918542;29;20549;-70
2023/12/21 13:13:10;;;;;;;0.33;0.33;;;10.10;99.90;;;;;;4919222;29;20179;-70
2023/12/21 13:15:36;;;;;;;0.37;0.37;;;10.10;99.90;;;;;;4918687;29;20202;-67
2023/12/21 13:18:02;;;;;;;0.30;0.20;;;10.20;99.90;;;;;;4917403;29;20227;-69
2023/12/21 13:20:29;;;;;;;0.30;0.30;;;10.20;99.90;;;;;;4918702;29;20286;-67
2023/12/21 13:22:55;;;;;;;0.30;0.30;;;10.20;99.90;;;;;;4918712;29;20168;-68
2023/12/21 13:25:21;;;;;;;0.30;0.30;;;10.20;99.90;;;;;;4918275;29;20607;-69
2023/12/21 13:27:47;;;;;;;0.30;0.30;;;10.20;99.90;;;;;;4919156;29;20241;-71
2023/12/21 13:30:13;;;;;;;0.30;0.30;;;10.10;99.90;;;;;;4917398;29;20186;-69
2023/12/21 13:32:39;;;;;;;0.30;0.30;;;10.10;99.90;;;;;;4918393;29;20521;-72
2023/12/21 13:35:05;;;;;;;0.30;0.28;;;10.10;99.90;;;;;;4918216;29;20196;-71
2023/12/21 13:37:30;;;;;;;0.30;0.30;;;10.10;99.90;;;;;;4918584;29;20189;-68
2023/12/21 13:39:56;;;;;;;0.30;0.30;;;10.00;99.90;;;;;;4918358;29;20214;-68
2023/12/21 13:42:22;;;;;;;0.30;0.30;;;10.00;99.90;;;;;;4928714;29;20652;-68
2023/12/21 13:44:49;;;;;;;0.30;0.27;;;9.90;99.90;;;;;;4918044;29;20175;-70
2023/12/21 13:47:17;;;;;;;0.30;0.30;;;9.90;99.90;;;;;;4918370;29;20234;-68
2023/12/21 13:49:43;;;;;;;0.30;0.30;;;9.90;99.90;;;;;;4918372;29;20174;-69
2023/12/21 13:52:08;;;;;;;0.30;0.30;;;9.90;99.90;;;;;;4918276;29;20177;-69
2023/12/21 13:54:34;;;;;;;0.30;0.20;;;9.90;99.90;;;;;;4918137;29;20526;-67
2023/12/21 13:57:00;;;;;;;0.30;0.30;;;9.90;99.90;;;;;;4931722;29;20233;-69
2023/12/21 13:59:25;;;;;;;0.30;0.30;;;9.90;99.90;;;;;;4918293;29;20171;-68
2023/12/21 14:01:51;;;;;;;0.30;0.30;;;9.90;99.90;;;;;;4931099;29;20301;-68
2023/12/21 14:04:17;;;;;;;0.30;0.30;;;9.90;99.90;;;;;;4937036;29;20173;-67
2023/12/21 14:06:43;;;;;;;0.30;0.30;;;9.90;99.90;;;;;;4935463;29;20209;-68
2023/12/21 14:09:08;;;;;;;0.30;0.30;;;9.90;99.90;;;;;;4936755;29;20166;-68
2023/12/21 14:11:34;;;;;;;0.30;0.30;;;10.00;99.90;;;;;;4936921;29;20716;-69
2023/12/21 14:14:00;;;;;;;0.30;0.30;;;9.90;99.90;;;;;;4936084;29;20178;-68
2023/12/21 14:16:25;;;;;;;0.30;0.30;;;9.90;99.90;;;;;;4936326;29;20252;-68
2023/12/21 14:18:51;;;;;;;0.30;0.30;;;10.00;99.90;;;;;;4936927;29;20310;-68
2023/12/21 14:21:17;;;;;;;0.30;0.30;;;10.00;99.90;;;;;;4935385;29;20214;-66
2023/12/21 14:23:42;;;;;;;0.30;0.30;;;10.00;99.90;;;;;;4936625;29;20264;-68
2023/12/21 14:26:08;;;;;;;0.30;0.30;;;10.00;99.90;;;;;;4935863;29;20801;-68
2023/12/21 14:28:34;;;;;;;0.30;0.30;;;10.00;99.90;;;;;;4936863;29;20166;-68
2023/12/21 14:31:00;;;;;;;0.40;0.40;;;10.00;99.90;;;;;;4936697;29;20654;-68
2023/12/21 14:33:26;;;;;;;0.40;0.40;;;10.00;99.90;;;;;;4936904;29;20205;-68
2023/12/21 14:35:51;;;;;;;0.30;0.20;;;9.90;99.90;;;;;;4935937;29;20769;-66
2023/12/21 14:38:18;;;;;;;0.30;0.30;;;9.90;99.90;;;;;;4936623;29;20181;-68
2023/12/21 14:40:45;;;;;;;0.30;0.20;;;9.90;99.90;;;;;;4932471;29;20212;-67
2023/12/21 14:43:10;;;;;;;0.30;0.30;;;9.90;99.90;;;;;;4917718;29;20249;-68
2023/12/21 14:45:36;;;;;;;0.30;0.30;;;9.90;99.90;;;;;;4917267;29;20238;-69
2023/12/21 14:48:02;;;;;;;0.30;0.30;;;9.90;99.90;;;;;;4916139;29;20182;-69
2023/12/21 14:50:27;;;;;;;0.30;0.30;;;9.90;99.90;;;;;;4927031;29;20548;-68
2023/12/21 14:52:53;;;;;;;0.30;0.30;;;10.00;99.90;;;;;;4936093;29;20185;-68
2023/12/21 14:55:18;;;;;;;0.30;0.30;;;9.90;99.90;;;;;;4935880;29;20197;-67
2023/12/21 14:57:44;;;;;;;0.30;0.30;;;9.90;99.90;;;;;;4936440;29;20213;-67
2023/12/21 15:00:10;;;;;;;0.30;0.30;;;9.90;99.90;;;;;;4935606;29;20285;-67
2023/12/21 15:02:36;;;;;;;0.30;0.20;;;9.90;99.90;;;;;;4936334;29;20221;-67
2023/12/21 15:05:03;;;;;;;0.30;0.30;;;9.90;99.90;;;;;;4935830;29;20194;-68
2023/12/21 15:07:29;;;;;;;0.30;0.20;;;9.90;99.90;;;;;;4935629;29;20517;-68
2023/12/21 15:09:54;;;;;;;0.30;0.30;;;9.90;99.90;;;;;;4936143;29;20709;-68
2023/12/21 15:12:21;;;;;;;0.30;0.30;;;9.80;99.90;;;;;;4936007;29;20174;-68
2023/12/21 15:14:47;;;;;;;0.30;0.20;;;9.80;99.90;;;;;;4935408;29;20184;-68
2023/12/21 15:17:13;;;;;;;0.30;0.30;;;9.80;99.90;;;;;;4934827;29;20178;-67
2023/12/21 15:19:38;;;;;;;0.30;0.30;;;9.80;99.90;;;;;;4935927;29;20567;-70
2023/12/21 15:22:05;;;;;;;0.30;0.30;;;9.80;99.90;;;;;;4935914;29;20171;-69
2023/12/21 15:24:31;;;;;;;0.40;0.40;;;9.80;99.90;;;;;;4934757;29;20187;-69
2023/12/21 15:26:56;;;;;;;0.30;0.30;;;9.80;99.90;;;;;;4935905;29;20200;-67
2023/12/21 15:29:22;;;;;;;0.30;0.30;;;9.80;99.90;;;;;;4936173;29;20185;-70
2023/12/21 15:31:47;;;;;;;0.30;0.30;;;9.80;99.90;;;;;;4935852;29;20188;-68
2023/12/21 15:34:13;;;;;;;0.30;0.30;;;9.80;99.90;;;;;;4935564;29;20178;-68
2023/12/21 15:36:40;;;;;;;0.30;0.30;;;9.80;99.90;;;;;;4935793;29;20288;-68
2023/12/21 15:39:07;;;;;;;0.30;0.30;;;9.90;99.90;;;;;;4929222;29;20171;-69
2023/12/21 15:41:34;;;;;;;0.30;0.30;;;9.90;99.90;;;;;;4916786;29;20257;-69
2023/12/21 15:44:00;;;;;;;0.30;0.30;;;10.00;99.90;;;;;;4916738;29;20177;-68
2023/12/21 15:46:25;;;;;;;0.30;0.30;;;10.00;99.90;;;;;;4915398;29;20206;-69
2023/12/21 15:48:51;;;;;;;0.30;0.30;;;10.00;99.90;;;;;;4916856;29;20903;-68
2023/12/21 15:51:17;;;;;;;0.30;0.30;;;10.00;99.90;;;;;;4915180;29;20410;-67
2023/12/21 15:53:43;;;;;;;0.30;0.30;;;10.00;99.90;;;;;;4922031;29;20549;-68
2023/12/21 15:56:09;;;;;;;0.30;0.30;;;10.00;99.90;;;;;;4935289;29;20202;-68
2023/12/21 15:58:34;;;;;;;0.20;0.20;;;10.00;99.90;;;;;;4935635;29;20178;-69
2023/12/21 16:01:01;;;;;;;0.30;0.30;;;10.00;99.90;;;;;;4935776;29;20201;-69
2023/12/21 16:03:27;;;;;;;0.30;0.30;;;10.00;99.90;;;;;;4936007;29;20166;-67
2023/12/21 16:05:53;;;;;;;0.20;0.20;;;10.00;99.90;;;;;;4934003;29;20221;-68
2023/12/21 16:08:20;;;;;;;0.30;0.30;;;10.10;99.90;;;;;;4935469;29;20244;-68
2023/12/21 16:10:46;;;;;;;0.30;0.30;;;10.10;99.90;;;;;;4935901;29;20181;-68
2023/12/21 16:13:12;;;;;;;0.40;0.40;;;10.00;99.90;;;;;;4934375;29;20183;-68
2023/12/21 16:15:38;;;;;;;0.30;0.30;;;10.10;99.90;;;;;;4933921;29;20216;-67
2023/12/21 16:18:04;;;;;;;0.30;0.30;;;10.10;99.90;;;;;;4935436;29;20205;-67
2023/12/21 16:20:33;;;;;;;0.30;0.30;;;10.10;99.90;;;;;;4937385;29;20457;-67
2023/12/21 16:23:00;;;;;;;0.30;0.30;;;10.10;99.90;;;;;;4953500;29;20179;-69
2023/12/21 16:25:26;;;;;;;0.30;0.30;;;10.10;99.90;;;;;;4938793;29;20189;-69
2023/12/21 16:27:51;;;;;;;0.30;0.30;;;10.00;99.90;;;;;;4939239;29;20533;-68
2023/12/21 16:30:18;;;;;;;0.30;0.30;;;10.00;99.90;;;;;;4939097;29;20409;-68
2023/12/21 16:32:48;;;;;;;0.30;0.20;;;10.10;99.90;;;;;;4937667;29;20181;-68
2023/12/21 16:35:14;;;;;;;0.30;0.30;;;10.10;99.90;;;;;;4938312;29;20209;-69
2023/12/21 16:37:40;;;;;;;0.30;0.30;;;10.10;99.90;;;;;;4939080;29;20693;-67
2023/12/21 16:40:08;;;;;;;0.30;0.30;;;10.00;99.90;;;;;;4937559;29;20214;-69
2023/12/21 16:42:34;;;;;;;0.30;0.30;;;10.00;99.90;;;;;;4938974;29;20197;-68
2023/12/21 16:45:00;;;;;;;0.30;0.30;;;10.00;99.90;;;;;;4938388;29;20162;-70
2023/12/21 16:47:26;;;;;;;0.30;0.30;;;10.00;99.90;;;;;;4937543;29;20174;-69
2023/12/21 16:49:52;;;;;;;0.30;0.30;;;10.00;99.90;;;;;;4938041;29;20184;-69
2023/12/21 16:52:17;;;;;;;0.30;0.30;;;9.90;99.90;;;;;;4953061;29;20176;-69
2023/12/21 16:54:43;;;;;;;0.30;0.27;;;9.90;99.90;;;;;;4920922;29;20210;-70
2023/12/21 16:57:08;;;;;;;0.30;0.30;;;9.90;99.90;;;;;;4938455;29;20228;-67
2023/12/21 16:59:34;;;;;;;0.30;0.30;;;9.80;99.90;;;;;;4936733;29;20277;-68
2023/12/21 17:02:00;;;;;;;0.30;0.30;;;9.80;99.90;;;;;;4937817;29;20205;-69
2023/12/21 17:04:25;;;;;;;0.30;0.30;;;9.80;99.90;;;;;;4937261;29;20210;-68
2023/12/21 17:06:51;;;;;;;0.30;0.30;;;9.70;99.90;;;;;;4937863;29;21421;-68
2023/12/21 17:09:17;;;;;;;0.30;0.30;;;9.70;99.90;;;;;;4936969;29;20178;-69
2023/12/21 17:11:43;;;;;;;0.30;0.30;;;9.70;99.90;;;;;;4938494;29;20184;-69
2023/12/21 17:14:08;;;;;;;0.30;0.30;;;9.70;99.90;;;;;;4935956;29;20190;-69
2023/12/21 17:16:34;;;;;;;0.27;0.20;;;9.70;99.90;;;;;;4924312;29;20202;-71
2023/12/21 17:19:00;;;;;;;0.30;0.30;;;9.70;99.90;;;;;;4921886;29;20229;-70
2023/12/21 17:21:25;;;;;;;0.30;0.30;;;9.70;99.90;;;;;;4921076;29;20202;-68
2023/12/21 17:23:51;;;;;;;0.30;0.30;;;9.80;99.90;;;;;;4919070;29;20181;-67
2023/12/21 17:26:17;;;;;;;0.30;0.30;;;9.80;99.90;;;;;;4933279;29;20243;-69
2023/12/21 17:28:43;;;;;;;0.40;0.40;;;9.90;99.90;;;;;;4922616;29;20418;-71
2023/12/21 17:31:09;;;;;;;0.30;0.30;;;10.00;99.90;;;;;;4926639;29;20296;-68
2023/12/21 17:33:34;;;;;;;0.30;0.30;;;10.00;99.90;;;;;;4926894;29;20193;-70
2023/12/21 17:36:04;;;;;;;0.40;0.40;;;10.00;99.90;;;;;;4927468;29;20273;-69
2023/12/21 17:38:30;;;;;;;0.30;0.30;;;10.00;99.90;;;;;;4929866;29;20188;-68
2023/12/21 17:40:56;;;;;;;0.30;0.30;;;10.00;99.90;;;;;;4927267;29;20198;-69
2023/12/21 17:43:25;;;;;;;0.30;0.30;;;9.90;99.90;;;;;;4909527;29;20458;-67
2023/12/21 17:45:51;;;;;;;0.30;0.30;;;9.90;99.90;;;;;;4929623;29;21072;-69
2023/12/21 17:48:18;;;;;;;0.35;0.35;;;9.90;99.90;;;;;;4926768;29;20259;-66
2023/12/21 17:50:43;;;;;;;0.30;0.30;;;9.90;99.90;;;;;;4925301;29;20534;-69
2023/12/21 17:53:09;;;;;;;0.30;0.30;;;9.90;99.90;;;;;;4933304;29;20193;-67
2023/12/21 17:55:36;;;;;;;0.30;0.30;;;10.00;99.90;;;;;;4933452;29;20351;-68